createdAt,value
2022-12-01T00:01:23.092Z,3.47
2022-12-01T00:04:07.057Z,3.49
2022-12-01T00:06:43.919Z,3.49
2022-12-01T00:12:35.843Z,3.53
2022-12-01T00:15:15.535Z,3.51
2022-12-01T00:18:01.691Z,3.49
2022-12-01T00:20:48.179Z,3.53
2022-12-01T00:23:27.516Z,3.53
2022-12-01T00:25:56.111Z,3.52
2022-12-01T00:28:34.184Z,3.54
2022-12-01T00:31:08.509Z,3.53
2022-12-01T00:33:45.447Z,3.56
2022-12-01T00:36:26.690Z,3.51
2022-12-01T00:39:11.254Z,3.49
2022-12-01T00:41:50.077Z,3.51
2022-12-01T00:44:26.811Z,3.50
2022-12-01T00:46:58.368Z,3.50
2022-12-01T00:49:42.042Z,3.51
2022-12-01T00:52:20.938Z,3.48
2022-12-01T00:54:58.254Z,3.47
2022-12-01T00:57:48.007Z,3.44
2022-12-01T01:00:36.184Z,3.47
2022-12-01T01:03:41.435Z,3.49
2022-12-01T01:06:19.378Z,3.50
2022-12-01T01:08:49.275Z,3.46
2022-12-01T01:11:22.257Z,3.48
2022-12-01T01:13:55.291Z,3.44
2022-12-01T01:16:28.584Z,3.46
2022-12-01T01:19:07.595Z,3.45
2022-12-01T01:21:48.159Z,3.42
2022-12-01T01:24:22.390Z,3.43
2022-12-01T01:27:34.641Z,3.38
2022-12-01T01:30:27.770Z,3.39
2022-12-01T01:33:10.464Z,3.41
2022-12-01T01:35:49.916Z,3.41
2022-12-01T01:38:19.946Z,3.46
2022-12-01T01:40:48.103Z,3.44
2022-12-01T01:43:38.060Z,3.45
2022-12-01T01:46:19.097Z,3.44
2022-12-01T01:49:09.796Z,3.45
2022-12-01T01:51:46.101Z,3.43
2022-12-01T01:54:36.577Z,3.47
2022-12-01T01:57:38.582Z,3.44
2022-12-01T02:00:16.540Z,3.48
2022-12-01T02:03:03.514Z,3.47
2022-12-01T02:05:36.442Z,3.49
2022-12-01T02:08:13.812Z,3.50
2022-12-01T02:11:08.406Z,3.47
2022-12-01T02:14:04.849Z,3.54
2022-12-01T02:16:57.266Z,3.49
2022-12-01T02:20:07.304Z,3.47
2022-12-01T02:22:53.415Z,3.46
2022-12-01T02:25:58.670Z,3.47
2022-12-01T02:29:09.049Z,3.42
2022-12-01T02:32:19.175Z,3.38
2022-12-01T02:35:09.164Z,3.36
2022-12-01T02:38:14.482Z,3.42
2022-12-01T02:41:07.647Z,3.45
2022-12-01T02:44:20.255Z,3.45
2022-12-01T02:47:00.947Z,3.44
2022-12-01T02:49:35.233Z,3.44
2022-12-01T02:52:08.665Z,3.43
2022-12-01T02:54:41.952Z,3.39
2022-12-01T02:57:24.439Z,3.47
2022-12-01T03:00:06.204Z,3.49
2022-12-01T03:03:19.621Z,3.50
2022-12-01T03:06:06.023Z,3.51
2022-12-01T03:12:19.286Z,3.51
2022-12-01T03:15:21.989Z,3.52
2022-12-01T03:18:14.947Z,3.50
2022-12-01T03:21:13.815Z,3.45
2022-12-01T03:23:48.573Z,3.47
2022-12-01T03:26:25.930Z,3.50
2022-12-01T03:29:36.612Z,3.48
2022-12-01T03:32:33.058Z,3.46
2022-12-01T03:35:06.942Z,3.51
2022-12-01T03:38:01.206Z,3.46
2022-12-01T03:40:37.880Z,3.42
2022-12-01T03:46:09.428Z,3.41
2022-12-01T03:49:10.188Z,3.46
2022-12-01T03:52:13.340Z,3.48
2022-12-01T03:55:06.416Z,3.52
2022-12-01T03:57:56.177Z,3.53
2022-12-01T04:00:27.961Z,3.55
2022-12-01T04:03:13.317Z,3.52
2022-12-01T04:05:45.891Z,3.59
2022-12-01T04:08:13.414Z,3.60
2022-12-01T04:10:40.895Z,3.60
2022-12-01T04:13:19.229Z,3.61
2022-12-01T04:15:53.102Z,3.58
2022-12-01T04:18:27.235Z,3.59
2022-12-01T04:21:00.915Z,3.60
2022-12-01T04:24:06.215Z,3.62
2022-12-01T04:26:40.391Z,3.59
2022-12-01T04:29:18.619Z,3.57
2022-12-01T04:31:48.913Z,3.55
2022-12-01T04:34:20.618Z,3.61
2022-12-01T04:36:54.810Z,3.59
2022-12-01T04:39:32.651Z,3.64
2022-12-01T04:42:12.547Z,3.63
2022-12-01T04:44:50.466Z,3.62
2022-12-01T04:47:26.930Z,3.61
2022-12-01T04:50:04.057Z,3.61
2022-12-01T04:52:42.043Z,3.61
2022-12-01T04:55:17.344Z,3.60
2022-12-01T04:57:53.815Z,3.55
2022-12-01T05:00:25.865Z,3.59
2022-12-01T05:03:13.661Z,3.56
2022-12-01T05:05:51.873Z,3.64
2022-12-01T05:08:25.107Z,3.61
2022-12-01T05:11:05.743Z,3.63
2022-12-01T05:13:33.064Z,3.60
2022-12-01T05:16:13.365Z,3.61
2022-12-01T05:19:17.374Z,3.55
2022-12-01T05:21:49.295Z,3.55
2022-12-01T05:24:28.210Z,3.56
2022-12-01T05:27:01.592Z,3.59
2022-12-01T05:29:34.296Z,3.56
2022-12-01T05:32:08.418Z,3.49
2022-12-01T05:35:05.123Z,3.56
2022-12-01T05:37:34.949Z,3.61
2022-12-01T05:40:10.009Z,3.59
2022-12-01T05:42:39.618Z,3.61
2022-12-01T05:45:10.795Z,3.57
2022-12-01T05:47:48.349Z,3.36
2022-12-01T05:50:20.172Z,3.36
2022-12-01T05:52:49.951Z,3.26
2022-12-01T05:55:28.621Z,3.22
2022-12-01T05:58:04.377Z,3.31
2022-12-01T06:00:35.155Z,3.41
2022-12-01T06:03:02.586Z,3.46
2022-12-01T06:05:47.416Z,3.47
2022-12-01T06:08:31.004Z,3.47
2022-12-01T06:11:05.366Z,3.51
2022-12-01T06:13:50.274Z,3.51
2022-12-01T06:16:19.902Z,3.47
2022-12-01T06:18:57.272Z,3.40
2022-12-01T06:21:36.305Z,3.36
2022-12-01T06:24:33.988Z,3.27
2022-12-01T06:27:11.350Z,3.19
2022-12-01T06:29:51.740Z,3.21
2022-12-01T06:32:27.565Z,3.26
2022-12-01T06:35:01.866Z,3.29
2022-12-01T06:37:31.495Z,3.34
2022-12-01T06:39:58.603Z,3.36
2022-12-01T06:42:30.703Z,3.41
2022-12-01T06:45:03.264Z,3.48
2022-12-01T06:47:39.264Z,3.52
2022-12-01T06:50:11.391Z,3.50
2022-12-01T06:52:53.944Z,3.56
2022-12-01T06:55:35.845Z,3.57
2022-12-01T06:58:24.109Z,3.60
2022-12-01T07:01:03.176Z,3.63
2022-12-01T07:03:47.624Z,3.59
2022-12-01T07:06:18.530Z,3.61
2022-12-01T07:08:45.591Z,3.61
2022-12-01T07:11:15.518Z,3.63
2022-12-01T07:14:00.232Z,3.61
2022-12-01T07:16:32.230Z,3.61
2022-12-01T07:19:05.330Z,3.55
2022-12-01T07:21:37.140Z,3.54
2022-12-01T07:24:04.264Z,3.54
2022-12-01T07:26:34.361Z,3.58
2022-12-01T07:29:02.226Z,3.59
2022-12-01T07:31:29.522Z,3.61
2022-12-01T07:34:04.836Z,3.62
2022-12-01T07:37:15.726Z,3.65
2022-12-01T07:39:58.335Z,3.67
2022-12-01T07:42:33.423Z,3.67
2022-12-01T07:45:11.940Z,3.69
2022-12-01T07:47:48.731Z,3.74
2022-12-01T07:50:35.688Z,3.74
2022-12-01T07:53:16.742Z,3.73
2022-12-01T07:55:54.907Z,3.72
2022-12-01T07:58:22.095Z,3.71
2022-12-01T08:01:19.208Z,3.69
2022-12-01T08:04:01.575Z,3.74
2022-12-01T08:06:38.655Z,3.75
2022-12-01T08:09:31.801Z,3.72
2022-12-01T08:12:21.913Z,3.76
2022-12-01T08:15:37.262Z,3.76
2022-12-01T08:18:19.445Z,3.74
2022-12-01T08:20:59.428Z,3.75
2022-12-01T08:23:56.309Z,3.76
2022-12-01T08:26:34.284Z,3.71
2022-12-01T08:29:20.230Z,3.67
2022-12-01T08:31:58.436Z,3.62
2022-12-01T08:37:30.841Z,3.61
2022-12-01T08:40:27.170Z,3.61
2022-12-01T08:43:55.979Z,3.65
2022-12-01T08:46:21.643Z,3.61
2022-12-01T08:49:20.743Z,3.63
2022-12-01T08:52:06.703Z,3.59
2022-12-01T08:54:48.478Z,3.58
2022-12-01T08:57:38.331Z,3.56
2022-12-01T09:00:08.348Z,3.63
2022-12-01T09:02:52.101Z,3.68
2022-12-01T09:09:49.245Z,3.77
2022-12-01T09:12:19.910Z,3.92
2022-12-01T09:18:52.870Z,4.21
2022-12-01T09:22:11.417Z,4.31
2022-12-01T09:28:37.482Z,4.60
2022-12-01T09:31:36.881Z,4.62
2022-12-01T09:38:43.271Z,4.77
2022-12-01T09:39:04.754Z,4.95
2022-12-01T09:45:11.740Z,5.29
2022-12-01T09:47:45.018Z,5.51
2022-12-01T09:50:24.112Z,5.66
2022-12-01T09:53:10.700Z,5.81
2022-12-01T09:55:44.050Z,5.86
2022-12-01T09:58:18.363Z,5.74
2022-12-01T10:01:27.496Z,5.70
2022-12-01T10:04:06.249Z,5.68
2022-12-01T10:07:08.060Z,5.71
2022-12-01T10:10:09.767Z,5.75
2022-12-01T10:13:09.283Z,5.76
2022-12-01T10:16:08.049Z,5.85
2022-12-01T10:19:43.001Z,5.90
2022-12-01T10:22:52.784Z,5.89
2022-12-01T10:25:59.867Z,5.88
2022-12-01T11:07:07.055Z,6.29
2022-12-01T11:09:40.123Z,6.33
2022-12-01T11:12:28.463Z,6.38
2022-12-01T11:15:03.393Z,6.39
2022-12-01T11:17:46.491Z,6.39
2022-12-01T11:21:00.197Z,6.41
2022-12-01T11:23:29.458Z,6.44
2022-12-01T11:26:03.988Z,6.61
2022-12-01T11:28:39.167Z,6.76
2022-12-01T11:31:09.434Z,6.87
2022-12-01T11:33:53.739Z,6.91
2022-12-01T11:36:34.289Z,6.96
2022-12-01T11:39:30.688Z,7.00
2022-12-01T11:42:00.971Z,7.24
2022-12-01T11:44:53.515Z,7.36
2022-12-01T11:47:29.685Z,7.43
2022-12-01T11:50:05.474Z,7.49
2022-12-01T11:52:36.700Z,7.52
2022-12-01T11:55:22.966Z,7.54
2022-12-01T11:57:58.177Z,7.56
2022-12-01T12:00:28.630Z,7.53
2022-12-01T12:03:16.545Z,7.47
2022-12-01T12:06:39.027Z,7.47
2022-12-01T12:09:14.421Z,7.54
2022-12-01T12:12:10.382Z,7.62
2022-12-01T12:14:47.671Z,7.62
2022-12-01T12:17:31.310Z,7.67
2022-12-01T12:20:30.341Z,7.62
2022-12-01T12:23:18.120Z,7.51
2022-12-01T12:26:01.262Z,7.45
2022-12-01T12:28:46.013Z,7.38
2022-12-01T12:31:43.005Z,7.38
2022-12-01T12:34:44.835Z,7.46
2022-12-01T12:37:53.252Z,7.48
2022-12-01T12:45:12.444Z,7.40
2022-12-01T12:48:00.589Z,7.36
2022-12-01T12:50:48.313Z,7.32
2022-12-01T12:53:35.239Z,7.33
2022-12-01T12:56:07.277Z,7.31
2022-12-01T12:58:42.642Z,7.27
2022-12-01T13:01:29.179Z,7.18
2022-12-01T13:04:04.493Z,7.16
2022-12-01T13:07:01.793Z,7.09
2022-12-01T13:09:34.805Z,6.98
2022-12-01T13:12:15.952Z,6.91
2022-12-01T13:14:49.777Z,6.89
2022-12-01T13:17:23.467Z,6.88
2022-12-01T13:19:55.559Z,6.86
2022-12-01T13:22:30.386Z,6.89
2022-12-01T13:24:57.446Z,6.88
2022-12-01T13:27:28.535Z,6.89
2022-12-01T13:29:56.711Z,6.85
2022-12-01T13:32:41.053Z,6.75
2022-12-01T13:35:35.220Z,6.70
2022-12-01T13:38:29.980Z,6.59
2022-12-01T13:41:18.765Z,6.52
2022-12-01T13:44:21.476Z,6.50
2022-12-01T13:47:06.836Z,6.42
2022-12-01T13:49:50.806Z,6.42
2022-12-01T13:52:23.512Z,6.43
2022-12-01T13:55:22.350Z,6.50
2022-12-01T13:58:17.291Z,6.58
2022-12-01T14:00:48.953Z,6.65
2022-12-01T14:03:20.685Z,6.76
2022-12-01T14:06:18.557Z,6.89
2022-12-01T14:08:57.330Z,6.94
2022-12-01T14:11:41.037Z,6.95
2022-12-01T14:14:46.010Z,6.96
2022-12-01T14:17:25.254Z,6.97
2022-12-01T14:19:54.257Z,7.00
2022-12-01T14:23:36.766Z,7.00
2022-12-01T14:26:32.087Z,7.02
2022-12-01T14:29:02.314Z,6.99
2022-12-01T14:35:23.413Z,6.94
2022-12-01T14:37:59.188Z,6.95
2022-12-01T14:40:40.052Z,6.93
2022-12-01T14:43:45.838Z,6.89
2022-12-01T14:50:02.068Z,6.75
2022-12-01T14:53:20.205Z,6.68
2022-12-01T14:56:45.770Z,6.57
2022-12-01T14:59:39.389Z,6.50
2022-12-01T15:02:23.290Z,6.50
2022-12-01T15:05:18.325Z,6.35
2022-12-01T15:14:52.825Z,6.32
2022-12-01T15:17:43.938Z,6.30
2022-12-01T15:20:33.994Z,6.30
2022-12-01T15:23:42.331Z,6.28
2022-12-01T15:26:38.946Z,6.26
2022-12-01T15:34:03.580Z,6.12
2022-12-01T15:36:45.560Z,6.08
2022-12-01T15:39:39.251Z,6.07
2022-12-01T15:46:19.939Z,5.91
2022-12-01T15:54:00.373Z,5.84
2022-12-01T15:56:46.029Z,5.84
2022-12-01T15:59:22.868Z,5.80
2022-12-01T16:02:45.184Z,5.79
2022-12-01T16:05:37.049Z,5.81
2022-12-01T16:08:30.287Z,5.77
2022-12-01T16:15:56.075Z,5.74
2022-12-01T16:23:38.971Z,5.68
2022-12-01T16:24:24.963Z,5.74
2022-12-01T16:26:43.226Z,5.62
2022-12-01T16:30:20.540Z,5.61
2022-12-01T16:33:31.142Z,5.57
2022-12-01T16:36:34.136Z,5.57
2022-12-01T16:40:09.652Z,5.53
2022-12-01T16:43:02.174Z,5.59
2022-12-01T16:49:14.949Z,5.57
2022-12-01T16:52:16.045Z,5.52
2022-12-01T16:55:21.612Z,5.50
2022-12-01T17:01:26.499Z,5.50
2022-12-01T17:04:10.782Z,5.50
2022-12-01T17:06:59.492Z,5.53
2022-12-01T17:10:10.939Z,5.53
2022-12-01T17:14:03.615Z,5.52
2022-12-01T17:17:25.307Z,5.48
2022-12-01T17:20:27.509Z,5.51
2022-12-01T17:23:26.389Z,5.49
2022-12-01T17:30:52.300Z,5.41
2022-12-01T17:33:22.338Z,5.38
2022-12-01T17:35:55.413Z,5.36
2022-12-01T17:42:50.395Z,5.40
2022-12-01T17:45:50.603Z,5.39
2022-12-01T17:48:51.623Z,5.39
2022-12-01T17:54:37.063Z,5.37
2022-12-01T17:57:42.767Z,5.36
2022-12-01T18:01:09.721Z,5.41
2022-12-01T18:04:20.864Z,5.34
2022-12-01T18:07:19.736Z,5.32
2022-12-01T18:13:21.228Z,5.37
2022-12-01T18:19:09.270Z,5.41
2022-12-01T18:21:35.926Z,5.40
2022-12-01T18:24:04.012Z,5.42
2022-12-01T18:26:32.779Z,5.42
2022-12-01T18:29:08.549Z,5.43
2022-12-01T18:31:35.187Z,5.41
2022-12-01T18:34:03.386Z,5.39
2022-12-01T18:36:31.640Z,5.40
2022-12-01T18:39:00.207Z,5.37
2022-12-01T18:41:26.968Z,5.30
2022-12-01T18:43:54.194Z,5.41
2022-12-01T18:46:21.332Z,5.36
2022-12-01T18:48:50.692Z,5.30
2022-12-01T18:51:19.573Z,5.33
2022-12-01T18:53:46.513Z,5.31
2022-12-01T18:56:15.233Z,5.32
2022-12-01T18:58:42.412Z,5.26
2022-12-01T19:01:26.790Z,5.27
2022-12-01T19:03:57.596Z,5.29
2022-12-01T19:06:24.462Z,5.29
2022-12-01T19:08:52.785Z,5.30
2022-12-01T19:11:20.062Z,5.30
2022-12-01T19:13:46.788Z,5.29
2022-12-01T19:16:16.135Z,5.34
2022-12-01T19:18:43.060Z,5.29
2022-12-01T19:21:12.624Z,5.34
2022-12-01T19:23:39.145Z,5.36
2022-12-01T19:26:12.824Z,5.42
2022-12-01T19:28:40.312Z,5.40
2022-12-01T19:31:08.793Z,5.44
2022-12-01T19:33:35.416Z,5.39
2022-12-01T19:36:06.116Z,5.34
2022-12-01T19:38:32.574Z,5.34
2022-12-01T19:40:58.959Z,5.33
2022-12-01T19:43:25.380Z,5.38
2022-12-01T19:45:51.811Z,5.43
2022-12-01T19:48:18.453Z,5.42
2022-12-01T19:50:44.847Z,5.47
2022-12-01T19:53:11.293Z,5.43
2022-12-01T19:55:38.035Z,5.45
2022-12-01T19:58:05.787Z,5.44
2022-12-01T20:00:32.620Z,5.44
2022-12-01T20:02:59.804Z,5.38
2022-12-01T20:05:26.214Z,5.37
2022-12-01T20:07:52.645Z,5.38
2022-12-01T20:10:20.247Z,5.40
2022-12-01T20:12:47.446Z,5.41
2022-12-01T20:15:14.533Z,5.38
2022-12-01T20:17:41.323Z,5.39
2022-12-01T20:20:08.395Z,5.30
2022-12-01T20:22:35.646Z,5.31
2022-12-01T20:25:03.029Z,5.30
2022-12-01T20:27:29.493Z,5.26
2022-12-01T20:29:56.044Z,5.21
2022-12-01T20:32:23.783Z,5.16
2022-12-01T20:34:50.854Z,5.16
2022-12-01T20:37:17.465Z,5.10
2022-12-01T20:39:43.882Z,5.12
2022-12-01T20:42:10.759Z,5.08
2022-12-01T20:44:37.404Z,5.02
2022-12-01T20:47:04.420Z,4.96
2022-12-01T20:49:31.048Z,4.93
2022-12-01T20:51:57.481Z,4.89
2022-12-01T20:54:28.702Z,4.95
2022-12-01T20:56:56.637Z,4.86
2022-12-01T20:59:23.070Z,4.82
2022-12-01T21:01:49.481Z,4.89
2022-12-01T21:04:15.897Z,4.88
2022-12-01T21:06:42.527Z,4.86
2022-12-01T21:09:08.986Z,4.85
2022-12-01T21:12:04.618Z,4.84
2022-12-01T21:14:35.672Z,4.83
2022-12-01T21:17:25.650Z,4.84
2022-12-01T21:19:54.730Z,4.81
2022-12-01T21:22:21.176Z,4.75
2022-12-01T21:24:51.572Z,4.76
2022-12-01T21:27:18.395Z,4.80
2022-12-01T21:29:47.551Z,4.69
2022-12-01T21:32:34.342Z,4.62
2022-12-01T21:35:13.598Z,4.54
2022-12-01T21:37:40.035Z,4.37
2022-12-01T21:40:24.617Z,4.35
2022-12-01T21:42:51.457Z,4.37
2022-12-01T21:45:27.066Z,4.32
2022-12-01T21:48:00.054Z,4.32
2022-12-01T21:50:27.264Z,4.38
2022-12-01T21:52:53.641Z,4.49
2022-12-01T21:55:19.957Z,4.53
2022-12-01T21:57:51.444Z,4.50
2022-12-01T22:00:35.763Z,4.50
2022-12-01T22:03:08.299Z,4.44
2022-12-01T22:05:40.429Z,4.48
2022-12-01T22:08:12.611Z,4.48
2022-12-01T22:10:55.891Z,4.55
2022-12-01T22:13:37.343Z,4.51
2022-12-01T22:16:03.913Z,4.46
2022-12-01T22:18:38.136Z,4.48
2022-12-01T22:21:22.731Z,4.49
2022-12-01T22:23:50.435Z,4.44
2022-12-01T22:26:20.156Z,4.47
2022-12-01T22:28:47.465Z,4.47
2022-12-01T22:31:20.485Z,4.51
2022-12-01T22:33:47.458Z,4.54
2022-12-01T22:36:26.146Z,4.51
2022-12-01T22:38:52.540Z,4.49
2022-12-01T22:41:22.854Z,4.44
2022-12-01T22:43:56.679Z,4.45
2022-12-01T22:46:28.589Z,4.46
2022-12-01T22:49:01.830Z,4.49
2022-12-01T22:52:03.825Z,4.42
2022-12-01T22:54:30.248Z,4.43
2022-12-01T22:57:11.557Z,4.44
2022-12-01T22:59:41.220Z,4.44
2022-12-01T23:02:20.594Z,4.44
2022-12-01T23:04:48.951Z,4.40
2022-12-01T23:07:35.553Z,4.34
2022-12-01T23:10:08.238Z,4.35
2022-12-01T23:12:36.395Z,4.32
2022-12-01T23:15:31.775Z,4.28
2022-12-01T23:18:20.584Z,4.31
2022-12-01T23:20:49.606Z,4.28
2022-12-01T23:23:21.865Z,4.25
2022-12-01T23:25:55.596Z,4.27
2022-12-01T23:28:22.904Z,4.24
2022-12-01T23:30:53.065Z,4.22
2022-12-01T23:33:22.346Z,4.24
2022-12-01T23:35:57.279Z,4.18
2022-12-01T23:38:29.175Z,4.15
2022-12-01T23:41:01.247Z,4.13
2022-12-01T23:43:32.003Z,4.08
2022-12-01T23:46:04.459Z,4.10
2022-12-01T23:48:39.288Z,4.14
2022-12-01T23:51:15.669Z,4.14
2022-12-01T23:53:42.826Z,4.10
2022-12-01T23:56:14.139Z,4.07
2022-12-01T23:58:40.581Z,4.10
